Fordtran, Texas
Current Conditions -  °F | °C
As of 2:51 PM on Monday 24 Nov 2014 (Local Time) from KVCT Reporting Station
Broken Clouds Broken Clouds  
Wind Chill: 68°   Ceiling: 11000
Heat Index: 68°   Visibility: 10mi
Dew Point: 34°   Wind: 14mph
Humidity: 28%   Direction: 10°N
Pressure: 30.03"   Gusts: NA
Location:  29.2421°N, 97.0692°W
Report Text: KVCT 242051Z 01012KT 10SM BKN110 20/01 A3003 RMK AO2 SLP166 T02000011 56020
Loading
Personal Weather Stations






























Interactive Weather Map New forecast layout! Learn more

10-Day Weather Forecast

Advertisements
Track Severe Weather on mobile